sensor_id;sensor_type;location;lat;lon;timestamp;pressure;altitude;pressure_sealevel;temperature;humidity
15308;BME280;7755;52.208;6.964;2022-12-11T00:00:17;100817.97;;;0.05;100.00
15308;BME280;7755;52.208;6.964;2022-12-11T00:04:19;100818.31;;;0.10;100.00
15308;BME280;7755;52.208;6.964;2022-12-11T00:08:25;100810.59;;;0.07;100.00
15308;BME280;7755;52.208;6.964;2022-12-11T00:12:28;100809.47;;;0.01;100.00
15308;BME280;7755;52.208;6.964;2022-12-11T00:16:31;100813.28;;;-0.02;100.00
15308;BME280;7755;52.208;6.964;2022-12-11T00:20:34;100821.16;;;0.00;100.00
15308;BME280;7755;52.208;6.964;2022-12-11T00:24:38;100813.81;;;-0.06;100.00
15308;BME280;7755;52.208;6.964;2022-12-11T00:28:41;100817.31;;;-0.06;100.00
15308;BME280;7755;52.208;6.964;2022-12-11T00:32:44;100813.28;;;-0.02;100.00
15308;BME280;7755;52.208;6.964;2022-12-11T00:36:47;100807.13;;;-0.02;100.00
15308;BME280;7755;52.208;6.964;2022-12-11T00:40:51;100800.28;;;-0.05;100.00
15308;BME280;7755;52.208;6.964;2022-12-11T00:44:54;100801.59;;;0.08;100.00
15308;BME280;7755;52.208;6.964;2022-12-11T00:48:57;100795.72;;;0.12;100.00
15308;BME280;7755;52.208;6.964;2022-12-11T00:53:00;100795.88;;;0.19;100.00
15308;BME280;7755;52.208;6.964;2022-12-11T00:57:04;100804.41;;;0.22;100.00
15308;BME280;7755;52.208;6.964;2022-12-11T01:01:08;100792.34;;;0.26;100.00
15308;BME280;7755;52.208;6.964;2022-12-11T01:05:12;100790.88;;;0.24;100.00
15308;BME280;7755;52.208;6.964;2022-12-11T01:09:14;100798.72;;;0.25;100.00
15308;BME280;7755;52.208;6.964;2022-12-11T01:13:37;100795.84;;;0.27;100.00
15308;BME280;7755;52.208;6.964;2022-12-11T01:17:40;100784.88;;;0.22;100.00
15308;BME280;7755;52.208;6.964;2022-12-11T01:21:43;100793.22;;;0.19;100.00
15308;BME280;7755;52.208;6.964;2022-12-11T01:25:46;100798.56;;;0.19;100.00
15308;BME280;7755;52.208;6.964;2022-12-11T01:29:50;100789.72;;;0.18;100.00
15308;BME280;7755;52.208;6.964;2022-12-11T01:33:53;100790.72;;;0.17;100.00
15308;BME280;7755;52.208;6.964;2022-12-11T01:37:56;100790.72;;;0.17;100.00
15308;BME280;7755;52.208;6.964;2022-12-11T01:42:00;100790.91;;;0.16;100.00
15308;BME280;7755;52.208;6.964;2022-12-11T01:46:04;100790.53;;;0.19;100.00
15308;BME280;7755;52.208;6.964;2022-12-11T01:50:07;100801.56;;;0.24;100.00
15308;BME280;7755;52.208;6.964;2022-12-11T01:54:12;100793.03;;;0.29;100.00
15308;BME280;7755;52.208;6.964;2022-12-11T01:58:17;100786.47;;;0.39;100.00
15308;BME280;7755;52.208;6.964;2022-12-11T02:02:24;100781.94;;;0.48;100.00
15308;BME280;7755;52.208;6.964;2022-12-11T02:06:30;100783.06;;;0.53;100.00
15308;BME280;7755;52.208;6.964;2022-12-11T02:10:48;100771.22;;;0.56;100.00
15308;BME280;7755;52.208;6.964;2022-12-11T02:14:56;100779.56;;;0.61;100.00
15308;BME280;7755;52.208;6.964;2022-12-11T02:19:10;100779.88;;;0.58;100.00
15308;BME280;7755;52.208;6.964;2022-12-11T02:23:32;100769.38;;;0.57;100.00
15308;BME280;7755;52.208;6.964;2022-12-11T02:27:43;100756.97;;;0.64;100.00
15308;BME280;7755;52.208;6.964;2022-12-11T02:31:51;100764.94;;;0.72;100.00
15308;BME280;7755;52.208;6.964;2022-12-11T02:35:56;100761.75;;;0.76;100.00
15308;BME280;7755;52.208;6.964;2022-12-11T02:40:01;100764.06;;;0.79;100.00
15308;BME280;7755;52.208;6.964;2022-12-11T02:44:07;100762.22;;;0.80;100.00
15308;BME280;7755;52.208;6.964;2022-12-11T02:48:15;100756.84;;;0.80;100.00
15308;BME280;7755;52.208;6.964;2022-12-11T02:52:20;100764.06;;;0.79;100.00
15308;BME280;7755;52.208;6.964;2022-12-11T02:56:28;100762.06;;;0.81;100.00
15308;BME280;7755;52.208;6.964;2022-12-11T03:00:33;100753.84;;;0.83;100.00
15308;BME280;7755;52.208;6.964;2022-12-11T03:04:37;100746.97;;;0.89;100.00
15308;BME280;7755;52.208;6.964;2022-12-11T03:08:42;100743.75;;;0.93;100.00
15308;BME280;7755;52.208;6.964;2022-12-11T03:12:46;100740.06;;;0.94;100.00
15308;BME280;7755;52.208;6.964;2022-12-11T03:16:59;100741.75;;;0.95;100.00
15308;BME280;7755;52.208;6.964;2022-12-11T03:21:13;100742.38;;;0.97;100.00
15308;BME280;7755;52.208;6.964;2022-12-11T03:25:22;100751.44;;;0.96;100.00
15308;BME280;7755;52.208;6.964;2022-12-11T03:29:31;100757.50;;;0.90;100.00
15308;BME280;7755;52.208;6.964;2022-12-11T03:33:38;100757.81;;;0.87;100.00
15308;BME280;7755;52.208;6.964;2022-12-11T03:37:46;100753.16;;;0.89;100.00
15308;BME280;7755;52.208;6.964;2022-12-11T03:41:50;100757.50;;;0.90;100.00
15308;BME280;7755;52.208;6.964;2022-12-11T03:45:55;100760.63;;;0.94;100.00
15308;BME280;7755;52.208;6.964;2022-12-11T03:50:01;100758.97;;;0.93;100.00
15308;BME280;7755;52.208;6.964;2022-12-11T03:54:07;100762.19;;;0.88;100.00
15308;BME280;7755;52.208;6.964;2022-12-11T03:58:11;100767.28;;;0.75;100.00
15308;BME280;7755;52.208;6.964;2022-12-11T04:02:14;100765.56;;;0.82;100.00
15308;BME280;7755;52.208;6.964;2022-12-11T04:06:17;100766.03;;;0.86;100.00
15308;BME280;7755;52.208;6.964;2022-12-11T04:10:21;100752.78;;;0.92;100.00
15308;BME280;7755;52.208;6.964;2022-12-11T04:14:24;100754.81;;;0.90;100.00
15308;BME280;7755;52.208;6.964;2022-12-11T04:18:45;100762.47;;;0.93;100.00
15308;BME280;7755;52.208;6.964;2022-12-11T04:23:08;100749.78;;;0.95;100.00
15308;BME280;7755;52.208;6.964;2022-12-11T04:27:31;100743.69;;;1.01;100.00
15308;BME280;7755;52.208;6.964;2022-12-11T04:32:01;100742.03;;;1.00;100.00
15308;BME280;7755;52.208;6.964;2022-12-11T04:36:04;100738.50;;;1.00;100.00
15308;BME280;7755;52.208;6.964;2022-12-11T04:40:09;100740.22;;;0.93;100.00
15308;BME280;7755;52.208;6.964;2022-12-11T04:44:14;100735.38;;;0.96;100.00
15308;BME280;7755;52.208;6.964;2022-12-11T04:48:17;100720.47;;;0.94;100.00
15308;BME280;7755;52.208;6.964;2022-12-11T04:52:20;100723.22;;;0.86;100.00
15308;BME280;7755;52.208;6.964;2022-12-11T04:56:23;100719.59;;;0.78;100.00
15308;BME280;7755;52.208;6.964;2022-12-11T05:00:27;100716.78;;;0.72;100.00
15308;BME280;7755;52.208;6.964;2022-12-11T05:04:30;100724.41;;;0.83;100.00
15308;BME280;7755;52.208;6.964;2022-12-11T05:08:34;100711.63;;;0.93;100.00
15308;BME280;7755;52.208;6.964;2022-12-11T05:12:37;100711.41;;;1.03;100.00
15308;BME280;7755;52.208;6.964;2022-12-11T05:16:41;100716.91;;;1.01;100.00
15308;BME280;7755;52.208;6.964;2022-12-11T05:20:44;100715.56;;;1.05;100.00
15308;BME280;7755;52.208;6.964;2022-12-11T05:24:47;100711.16;;;1.13;100.00
15308;BME280;7755;52.208;6.964;2022-12-11T05:28:51;100714.13;;;1.18;100.00
15308;BME280;7755;52.208;6.964;2022-12-11T05:32:56;100715.97;;;1.17;100.00
15308;BME280;7755;52.208;6.964;2022-12-11T05:36:59;100705.09;;;1.19;100.00
15308;BME280;7755;52.208;6.964;2022-12-11T05:41:06;100716.63;;;1.19;100.00
15308;BME280;7755;52.208;6.964;2022-12-11T05:45:10;100713.84;;;1.13;100.00
15308;BME280;7755;52.208;6.964;2022-12-11T05:49:14;100719.84;;;1.15;100.00
15308;BME280;7755;52.208;6.964;2022-12-11T05:53:20;100715.44;;;1.22;100.00
15308;BME280;7755;52.208;6.964;2022-12-11T05:57:23;100710.56;;;1.25;100.00
15308;BME280;7755;52.208;6.964;2022-12-11T06:01:28;100705.84;;;1.27;100.00
15308;BME280;7755;52.208;6.964;2022-12-11T06:05:36;100716.56;;;1.27;100.00
15308;BME280;7755;52.208;6.964;2022-12-11T06:09:39;100711.03;;;1.29;100.00
15308;BME280;7755;52.208;6.964;2022-12-11T06:13:42;100709.53;;;1.26;100.00
15308;BME280;7755;52.208;6.964;2022-12-11T06:17:45;100705.84;;;1.27;100.00
15308;BME280;7755;52.208;6.964;2022-12-11T06:21:49;100699.53;;;1.20;100.00
15308;BME280;7755;52.208;6.964;2022-12-11T06:25:52;100706.28;;;1.16;100.00
15308;BME280;7755;52.208;6.964;2022-12-11T06:29:54;100708.78;;;1.18;100.00
15308;BME280;7755;52.208;6.964;2022-12-11T06:33:57;100704.91;;;1.20;100.00
15308;BME280;7755;52.208;6.964;2022-12-11T06:38:01;100705.38;;;1.24;100.00
15308;BME280;7755;52.208;6.964;2022-12-11T06:42:04;100708.06;;;1.24;100.00
15308;BME280;7755;52.208;6.964;2022-12-11T06:46:08;100697.16;;;1.25;100.00
15308;BME280;7755;52.208;6.964;2022-12-11T06:50:11;100705.84;;;1.27;100.00
15308;BME280;7755;52.208;6.964;2022-12-11T06:54:16;100694.91;;;1.14;100.00
15308;BME280;7755;52.208;6.964;2022-12-11T06:58:18;100693.63;;;1.10;100.00
15308;BME280;7755;52.208;6.964;2022-12-11T07:02:21;100698.28;;;1.08;100.00
15308;BME280;7755;52.208;6.964;2022-12-11T07:06:25;100701.84;;;1.08;100.00
15308;BME280;7755;52.208;6.964;2022-12-11T07:10:31;100710.03;;;1.07;100.00
15308;BME280;7755;52.208;6.964;2022-12-11T07:14:34;100711.69;;;1.08;100.00
15308;BME280;7755;52.208;6.964;2022-12-11T07:18:38;100714.84;;;1.12;100.00
15308;BME280;7755;52.208;6.964;2022-12-11T07:22:41;100716.69;;;1.11;100.00
15308;BME280;7755;52.208;6.964;2022-12-11T07:26:48;100719.19;;;1.13;100.00
15308;BME280;7755;52.208;6.964;2022-12-11T07:30:51;100715.59;;;1.20;100.00
15308;BME280;7755;52.208;6.964;2022-12-11T07:34:54;100719.19;;;1.13;100.00
15308;BME280;7755;52.208;6.964;2022-12-11T07:38:57;100722.69;;;1.13;100.00
15308;BME280;7755;52.208;6.964;2022-12-11T07:43:02;100729.38;;;1.17;100.00
15308;BME280;7755;52.208;6.964;2022-12-11T07:47:05;100732.16;;;1.24;100.00
15308;BME280;7755;52.208;6.964;2022-12-11T07:51:09;100728.09;;;1.28;100.00
15308;BME280;7755;52.208;6.964;2022-12-11T07:55:12;100732.94;;;1.32;100.00
15308;BME280;7755;52.208;6.964;2022-12-11T07:59:16;100738.78;;;1.36;100.00
15308;BME280;7755;52.208;6.964;2022-12-11T08:03:19;100733.22;;;1.38;100.00
15308;BME280;7755;52.208;6.964;2022-12-11T08:07:22;100726.56;;;1.33;100.00
15308;BME280;7755;52.208;6.964;2022-12-11T08:11:25;100735.38;;;1.19;100.00
15308;BME280;7755;52.208;6.964;2022-12-11T08:15:29;100722.16;;;1.18;100.00
15308;BME280;7755;52.208;6.964;2022-12-11T08:19:32;100725.31;;;1.21;100.00
15308;BME280;7755;52.208;6.964;2022-12-11T08:23:35;100726.50;;;1.19;100.00
15308;BME280;7755;52.208;6.964;2022-12-11T08:27:39;100721.75;;;1.29;100.00
15308;BME280;7755;52.208;6.964;2022-12-11T08:31:43;100730.13;;;1.26;100.00
15308;BME280;7755;52.208;6.964;2022-12-11T08:35:46;100730.78;;;1.28;100.00
15308;BME280;7755;52.208;6.964;2022-12-11T08:39:49;100727.75;;;1.31;100.00
15308;BME280;7755;52.208;6.964;2022-12-11T08:43:53;100722.69;;;1.36;100.00
15308;BME280;7755;52.208;6.964;2022-12-11T08:47:58;100721.19;;;1.33;100.00
15308;BME280;7755;52.208;6.964;2022-12-11T08:52:01;100718.53;;;1.33;100.00
15308;BME280;7755;52.208;6.964;2022-12-11T08:56:06;100720.47;;;1.40;100.00
15308;BME280;7755;52.208;6.964;2022-12-11T09:00:11;100716.78;;;1.41;100.00
15308;BME280;7755;52.208;6.964;2022-12-11T09:04:15;100722.13;;;1.41;100.00
15308;BME280;7755;52.208;6.964;2022-12-11T09:08:18;100718.06;;;1.30;100.00
15308;BME280;7755;52.208;6.964;2022-12-11T09:12:21;100719.91;;;1.29;100.00
15308;BME280;7755;52.208;6.964;2022-12-11T09:16:25;100713.72;;;1.29;100.00
15308;BME280;7755;52.208;6.964;2022-12-11T09:20:30;100710.97;;;1.37;100.00
15308;BME280;7755;52.208;6.964;2022-12-11T09:24:33;100706.38;;;1.46;100.00
15308;BME280;7755;52.208;6.964;2022-12-11T09:28:37;100703.97;;;1.51;100.00
15308;BME280;7755;52.208;6.964;2022-12-11T09:32:46;100708.97;;;1.54;100.00
15308;BME280;7755;52.208;6.964;2022-12-11T09:36:51;100705.94;;;1.57;100.00
15308;BME280;7755;52.208;6.964;2022-12-11T09:40:54;100696.06;;;1.57;100.00
15308;BME280;7755;52.208;6.964;2022-12-11T09:44:59;100699.09;;;1.54;100.00
15308;BME280;7755;52.208;6.964;2022-12-11T09:49:08;100705.16;;;1.48;100.00
15308;BME280;7755;52.208;6.964;2022-12-11T09:53:19;100699.47;;;1.51;100.00
15308;BME280;7755;52.208;6.964;2022-12-11T09:57:33;100701.59;;;1.56;100.00
15308;BME280;7755;52.208;6.964;2022-12-11T10:01:46;100702.88;;;1.60;100.00
15308;BME280;7755;52.208;6.964;2022-12-11T10:05:54;100709.06;;;1.60;100.00
15308;BME280;7755;52.208;6.964;2022-12-11T10:10:14;100702.34;;;1.64;100.00
15308;BME280;7755;52.208;6.964;2022-12-11T10:14:25;100705.31;;;1.70;100.00
15308;BME280;7755;52.208;6.964;2022-12-11T10:18:32;100711.97;;;1.74;100.00
15308;BME280;7755;52.208;6.964;2022-12-11T10:22:35;100695.88;;;1.74;100.00
15308;BME280;7755;52.208;6.964;2022-12-11T10:26:39;100694.84;;;1.75;100.00
15308;BME280;7755;52.208;6.964;2022-12-11T10:30:47;100698.22;;;1.77;100.00
15308;BME280;7755;52.208;6.964;2022-12-11T10:34:57;100698.47;;;1.82;100.00
15308;BME280;7755;52.208;6.964;2022-12-11T10:39:00;100694.22;;;1.87;100.00
15308;BME280;7755;52.208;6.964;2022-12-11T10:43:04;100694.22;;;1.87;100.00
15308;BME280;7755;52.208;6.964;2022-12-11T10:47:11;100692.66;;;1.93;100.00
15308;BME280;7755;52.208;6.964;2022-12-11T10:51:14;100689.34;;;1.91;100.00
15308;BME280;7755;52.208;6.964;2022-12-11T10:55:20;100688.97;;;1.94;100.00
15308;BME280;7755;52.208;6.964;2022-12-11T10:59:30;100683.88;;;1.99;100.00
15308;BME280;7755;52.208;6.964;2022-12-11T11:03:35;100688.22;;;2.00;100.00
15308;BME280;7755;52.208;6.964;2022-12-11T11:07:43;100686.28;;;1.94;100.00
15308;BME280;7755;52.208;6.964;2022-12-11T11:11:49;100689.34;;;1.91;100.00
15308;BME280;7755;52.208;6.964;2022-12-11T11:15:59;100682.97;;;1.92;100.00
15308;BME280;7755;52.208;6.964;2022-12-11T11:20:11;100678.44;;;1.92;100.00
15308;BME280;7755;52.208;6.964;2022-12-11T11:24:23;100675.38;;;1.96;100.00
15308;BME280;7755;52.208;6.964;2022-12-11T11:28:28;100665.94;;;2.00;100.00
15308;BME280;7755;52.208;6.964;2022-12-11T11:32:35;100657.06;;;1.99;100.00
15308;BME280;7755;52.208;6.964;2022-12-11T11:36:39;100658.38;;;2.03;100.00
15308;BME280;7755;52.208;6.964;2022-12-11T11:40:45;100662.88;;;2.03;100.00
15308;BME280;7755;52.208;6.964;2022-12-11T11:44:58;100662.25;;;2.01;100.00
15308;BME280;7755;52.208;6.964;2022-12-11T11:49:12;100673.16;;;1.99;100.00
15308;BME280;7755;52.208;6.964;2022-12-11T11:53:24;100671.69;;;1.97;100.00
15308;BME280;7755;52.208;6.964;2022-12-11T11:57:35;100664.94;;;2.01;100.00
15308;BME280;7755;52.208;6.964;2022-12-11T12:01:40;100663.06;;;2.01;100.00
15308;BME280;7755;52.208;6.964;2022-12-11T12:05:49;100652.72;;;1.98;100.00
15308;BME280;7755;52.208;6.964;2022-12-11T12:09:58;100663.91;;;2.02;100.00
15308;BME280;7755;52.208;6.964;2022-12-11T12:14:12;100660.28;;;2.09;100.00
15308;BME280;7755;52.208;6.964;2022-12-11T12:18:44;100653.94;;;2.10;100.00
15308;BME280;7755;52.208;6.964;2022-12-11T12:22:56;100647.91;;;2.08;100.00
15308;BME280;7755;52.208;6.964;2022-12-11T12:27:12;100650.78;;;2.07;100.00
15308;BME280;7755;52.208;6.964;2022-12-11T12:31:50;100636.97;;;2.10;100.00
15308;BME280;7755;52.208;6.964;2022-12-11T12:36:01;100641.91;;;2.06;100.00
15308;BME280;7755;52.208;6.964;2022-12-11T12:40:16;100645.59;;;2.20;100.00
15308;BME280;7755;52.208;6.964;2022-12-11T12:44:21;100646.34;;;1.99;100.00
15308;BME280;7755;52.208;6.964;2022-12-11T12:48:26;100644.69;;;1.98;100.00
15308;BME280;7755;52.208;6.964;2022-12-11T12:52:31;100642.28;;;2.76;100.00
15308;BME280;7755;52.208;6.964;2022-12-11T13:41:12;100661.31;;;1.12;100.00
15308;BME280;7755;52.208;6.964;2022-12-11T13:45:26;100658.97;;;1.31;100.00
15308;BME280;7755;52.208;6.964;2022-12-11T13:49:33;100662.69;;;1.45;100.00
15308;BME280;7755;52.208;6.964;2022-12-11T13:53:37;100651.69;;;1.55;100.00
15308;BME280;7755;52.208;6.964;2022-12-11T13:57:45;100660.41;;;1.72;100.00
15308;BME280;7755;52.208;6.964;2022-12-11T14:01:47;100655.16;;;2.44;100.00
15308;BME280;7755;52.208;6.964;2022-12-11T14:06:00;100662.50;;;2.57;100.00
15308;BME280;7755;52.208;6.964;2022-12-11T14:10:05;100659.59;;;2.52;100.00
15308;BME280;7755;52.208;6.964;2022-12-11T14:14:18;100661.38;;;2.44;100.00
15308;BME280;7755;52.208;6.964;2022-12-11T14:18:41;100659.78;;;2.35;100.00
15308;BME280;7755;52.208;6.964;2022-12-11T14:23:03;100656.84;;;2.30;100.00
15308;BME280;7755;52.208;6.964;2022-12-11T14:27:26;100655.91;;;2.23;100.00
15308;BME280;7755;52.208;6.964;2022-12-11T14:31:52;100662.78;;;2.26;100.00
15308;BME280;7755;52.208;6.964;2022-12-11T14:36:19;100654.03;;;2.17;100.00
15308;BME280;7755;52.208;6.964;2022-12-11T14:40:48;100658.91;;;2.13;100.00
15308;BME280;7755;52.208;6.964;2022-12-11T14:45:15;100659.09;;;2.12;100.00
15308;BME280;7755;52.208;6.964;2022-12-11T14:49:26;100652.25;;;2.09;100.00
15308;BME280;7755;52.208;6.964;2022-12-11T14:53:34;100663.34;;;2.06;100.00
15308;BME280;7755;52.208;6.964;2022-12-11T14:57:43;100674.16;;;2.13;100.00
15308;BME280;7755;52.208;6.964;2022-12-11T15:02:03;100660.13;;;2.11;100.00
15308;BME280;7755;52.208;6.964;2022-12-11T15:06:23;100663.63;;;2.11;100.00
15308;BME280;7755;52.208;6.964;2022-12-11T15:10:31;100667.34;;;2.10;100.00
15308;BME280;7755;52.208;6.964;2022-12-11T15:14:47;100667.50;;;2.09;100.00
15308;BME280;7755;52.208;6.964;2022-12-11T15:18:52;100659.47;;;2.09;100.00
15308;BME280;7755;52.208;6.964;2022-12-11T15:23:06;100659.22;;;2.04;100.00
15308;BME280;7755;52.208;6.964;2022-12-11T15:27:33;100658.38;;;2.03;100.00
15308;BME280;7755;52.208;6.964;2022-12-11T15:31:58;100664.72;;;2.02;100.00
15308;BME280;7755;52.208;6.964;2022-12-11T15:36:22;100668.25;;;2.03;100.00
15308;BME280;7755;52.208;6.964;2022-12-11T15:40:28;100668.81;;;1.98;100.00
15308;BME280;7755;52.208;6.964;2022-12-11T15:44:40;100676.56;;;1.93;100.00
15308;BME280;7755;52.208;6.964;2022-12-11T15:48:43;100678.25;;;1.94;100.00
15308;BME280;7755;52.208;6.964;2022-12-11T15:52:48;100685.66;;;1.92;100.00
15308;BME280;7755;52.208;6.964;2022-12-11T15:56:53;100681.13;;;1.92;100.00
15308;BME280;7755;52.208;6.964;2022-12-11T16:00:57;100682.47;;;1.88;100.00
15308;BME280;7755;52.208;6.964;2022-12-11T16:05:01;100675.47;;;1.87;100.00
15308;BME280;7755;52.208;6.964;2022-12-11T16:09:05;100675.66;;;1.86;100.00
15308;BME280;7755;52.208;6.964;2022-12-11T16:13:12;100670.84;;;1.81;100.00
15308;BME280;7755;52.208;6.964;2022-12-11T16:17:30;100675.56;;;1.79;100.00
15308;BME280;7755;52.208;6.964;2022-12-11T16:21:47;100685.44;;;1.79;100.00
15308;BME280;7755;52.208;6.964;2022-12-11T16:26:06;100684.97;;;1.75;100.00
15308;BME280;7755;52.208;6.964;2022-12-11T16:30:23;100678.56;;;1.61;100.00
15308;BME280;7755;52.208;6.964;2022-12-11T16:34:34;100682.66;;;1.57;100.00
15308;BME280;7755;52.208;6.964;2022-12-11T16:38:37;100684.97;;;1.60;100.00
15308;BME280;7755;52.208;6.964;2022-12-11T16:42:40;100685.44;;;1.64;100.00
15308;BME280;7755;52.208;6.964;2022-12-11T16:46:45;100679.88;;;1.66;100.00
15308;BME280;7755;52.208;6.964;2022-12-11T16:50:51;100687.09;;;1.65;100.00
15308;BME280;7755;52.208;6.964;2022-12-11T16:54:55;100682.75;;;1.64;100.00
15308;BME280;7755;52.208;6.964;2022-12-11T16:58:59;100687.09;;;1.65;100.00
15308;BME280;7755;52.208;6.964;2022-12-11T17:03:10;100688.56;;;1.68;100.00
15308;BME280;7755;52.208;6.964;2022-12-11T17:07:24;100682.19;;;1.69;100.00
15308;BME280;7755;52.208;6.964;2022-12-11T17:11:43;100682.47;;;1.59;100.00
15308;BME280;7755;52.208;6.964;2022-12-11T17:15:57;100686.47;;;1.63;100.00
15308;BME280;7755;52.208;6.964;2022-12-11T17:20:03;100686.28;;;1.64;100.00
15308;BME280;7755;52.208;6.964;2022-12-11T17:24:06;100693.47;;;1.64;100.00
15308;BME280;7755;52.208;6.964;2022-12-11T17:28:10;100687.94;;;1.66;100.00
15308;BME280;7755;52.208;6.964;2022-12-11T17:32:14;100686.72;;;1.68;100.00
15308;BME280;7755;52.208;6.964;2022-12-11T17:36:20;100692.56;;;1.72;100.00
15308;BME280;7755;52.208;6.964;2022-12-11T17:40:23;100689.69;;;1.73;100.00
15308;BME280;7755;52.208;6.964;2022-12-11T17:44:26;100693.19;;;1.74;100.00
15308;BME280;7755;52.208;6.964;2022-12-11T17:48:31;100695.75;;;1.52;100.00
15308;BME280;7755;52.208;6.964;2022-12-11T17:52:36;100695.13;;;1.27;100.00
15308;BME280;7755;52.208;6.964;2022-12-11T17:56:44;100694.50;;;1.25;100.00
15308;BME280;7755;52.208;6.964;2022-12-11T18:00:49;100697.09;;;1.33;100.00
15308;BME280;7755;52.208;6.964;2022-12-11T18:04:52;100702.75;;;1.39;100.00
15308;BME280;7755;52.208;6.964;2022-12-11T18:08:56;100697.56;;;1.37;100.00
15308;BME280;7755;52.208;6.964;2022-12-11T18:12:59;100686.78;;;1.45;100.00
15308;BME280;7755;52.208;6.964;2022-12-11T18:17:02;100686.88;;;1.52;100.00
15308;BME280;7755;52.208;6.964;2022-12-11T18:21:05;100690.88;;;1.56;100.00
15308;BME280;7755;52.208;6.964;2022-12-11T18:25:10;100693.19;;;1.59;100.00
15308;BME280;7755;52.208;6.964;2022-12-11T18:29:14;100686.63;;;1.61;100.00
15308;BME280;7755;52.208;6.964;2022-12-11T18:33:17;100686.28;;;1.64;100.00
15308;BME280;7755;52.208;6.964;2022-12-11T18:37:19;100695.78;;;1.67;100.00
15308;BME280;7755;52.208;6.964;2022-12-11T18:41:29;100691.44;;;1.66;100.00
15308;BME280;7755;52.208;6.964;2022-12-11T18:45:32;100692.28;;;1.67;100.00
15308;BME280;7755;52.208;6.964;2022-12-11T18:49:35;100697.72;;;1.58;100.00
15308;BME280;7755;52.208;6.964;2022-12-11T18:53:38;100692.16;;;1.60;100.00
15308;BME280;7755;52.208;6.964;2022-12-11T18:57:43;100692.47;;;1.65;100.00
15308;BME280;7755;52.208;6.964;2022-12-11T19:01:45;100697.44;;;1.68;100.00
15308;BME280;7755;52.208;6.964;2022-12-11T19:05:48;100703.81;;;1.67;100.00
15308;BME280;7755;52.208;6.964;2022-12-11T19:09:51;100698.84;;;1.64;99.95
15308;BME280;7755;52.208;6.964;2022-12-11T19:13:55;100694.59;;;1.70;99.13
15308;BME280;7755;52.208;6.964;2022-12-11T19:17:58;100697.63;;;1.67;99.89
15308;BME280;7755;52.208;6.964;2022-12-11T19:22:01;100690.13;;;1.62;100.00
15308;BME280;7755;52.208;6.964;2022-12-11T19:26:08;100688.00;;;1.57;100.00
15308;BME280;7755;52.208;6.964;2022-12-11T19:30:13;100698.06;;;1.55;100.00
15308;BME280;7755;52.208;6.964;2022-12-11T19:34:16;100703.06;;;1.58;100.00
15308;BME280;7755;52.208;6.964;2022-12-11T19:38:19;100708.63;;;1.57;100.00
15308;BME280;7755;52.208;6.964;2022-12-11T19:42:22;100699.91;;;1.55;100.00
15308;BME280;7755;52.208;6.964;2022-12-11T19:46:27;100695.03;;;1.58;100.00
15308;BME280;7755;52.208;6.964;2022-12-11T19:50:30;100701.78;;;1.69;100.00
15308;BME280;7755;52.208;6.964;2022-12-11T19:54:33;100697.72;;;1.73;99.46
15308;BME280;7755;52.208;6.964;2022-12-11T19:58:36;100702.44;;;1.71;99.72
15308;BME280;7755;52.208;6.964;2022-12-11T20:02:40;100701.44;;;1.72;100.00
15308;BME280;7755;52.208;6.964;2022-12-11T20:06:44;100704.75;;;1.74;100.00
15308;BME280;7755;52.208;6.964;2022-12-11T20:10:47;100699.78;;;1.71;100.00
15308;BME280;7755;52.208;6.964;2022-12-11T20:14:50;100699.78;;;1.71;100.00
15308;BME280;7755;52.208;6.964;2022-12-11T20:18:54;100699.78;;;1.71;100.00
15308;BME280;7755;52.208;6.964;2022-12-11T20:22:58;100701.25;;;1.74;100.00
15308;BME280;7755;52.208;6.964;2022-12-11T20:27:01;100701.44;;;1.72;99.78
15308;BME280;7755;52.208;6.964;2022-12-11T20:31:04;100701.06;;;1.75;99.25
15308;BME280;7755;52.208;6.964;2022-12-11T20:35:09;100705.56;;;1.75;99.24
15308;BME280;7755;52.208;6.964;2022-12-11T20:39:13;100694.50;;;1.78;99.22
15308;BME280;7755;52.208;6.964;2022-12-11T20:43:16;100692.66;;;1.78;98.71
15308;BME280;7755;52.208;6.964;2022-12-11T20:47:19;100694.50;;;1.78;99.01
15308;BME280;7755;52.208;6.964;2022-12-11T20:51:24;100696.34;;;1.77;99.41
15308;BME280;7755;52.208;6.964;2022-12-11T20:55:28;100685.63;;;1.77;99.63
15308;BME280;7755;52.208;6.964;2022-12-11T20:59:31;100691.00;;;1.77;100.00
15308;BME280;7755;52.208;6.964;2022-12-11T21:03:34;100687.94;;;1.80;100.00
15308;BME280;7755;52.208;6.964;2022-12-11T21:07:43;100696.47;;;1.84;100.00
15308;BME280;7755;52.208;6.964;2022-12-11T21:11:47;100690.06;;;1.85;100.00
15308;BME280;7755;52.208;6.964;2022-12-11T21:15:50;100695.63;;;1.83;100.00
15308;BME280;7755;52.208;6.964;2022-12-11T21:19:56;100693.94;;;1.82;100.00
15308;BME280;7755;52.208;6.964;2022-12-11T21:24:01;100698.31;;;1.83;100.00
15308;BME280;7755;52.208;6.964;2022-12-11T21:28:03;100702.16;;;1.81;100.00
15308;BME280;7755;52.208;6.964;2022-12-11T21:32:06;100695.63;;;1.83;100.00
15308;BME280;7755;52.208;6.964;2022-12-11T21:36:10;100696.06;;;1.87;100.00
15308;BME280;7755;52.208;6.964;2022-12-11T21:40:15;100696.81;;;1.81;100.00
15308;BME280;7755;52.208;6.964;2022-12-11T21:44:17;100688.66;;;1.74;100.00
15308;BME280;7755;52.208;6.964;2022-12-11T21:48:42;100690.41;;;1.67;100.00
15308;BME280;7755;52.208;6.964;2022-12-11T21:52:46;100692.06;;;1.68;100.00
15308;BME280;7755;52.208;6.964;2022-12-11T21:56:50;100693.59;;;1.71;100.00
15308;BME280;7755;52.208;6.964;2022-12-11T22:00:54;100700.31;;;1.67;100.00
15308;BME280;7755;52.208;6.964;2022-12-11T22:04:58;100698.16;;;1.62;100.00
15308;BME280;7755;52.208;6.964;2022-12-11T22:09:01;100699.66;;;1.64;100.00
15308;BME280;7755;52.208;6.964;2022-12-11T22:13:07;100702.63;;;1.70;100.00
15308;BME280;7755;52.208;6.964;2022-12-11T22:17:09;100703.38;;;1.63;100.00
15308;BME280;7755;52.208;6.964;2022-12-11T22:21:12;100705.38;;;1.61;100.00
15308;BME280;7755;52.208;6.964;2022-12-11T22:25:15;100702.06;;;1.59;100.00
15308;BME280;7755;52.208;6.964;2022-12-11T22:29:20;100721.19;;;1.56;100.00